Airport View

Enter AWOS ICAO identifier for current METAR.

ex. KFNL

K5M9 170945Z AUTO 04003KT 2 1/2SM BR CLR M01/M01 A3012 RMK AO2 T10151015

17 Nov 2019 09:47

Frequency: 118.15

Phone: 270-965-4877

Other Area AWOS: KM30 - K2I0 - KEHR - KHSB

TAF KPAH 170521Z 1706/1806 VRB03KT 5SM BR FEW250 FM171300 00000KT P6SM SCT250 FM171700 VRB03KT P6SM OVC250 FM180100 VRB03KT P6SM OVC100 FM180500 00000KT P6SM BKN050